createdAt,value
2019-03-30T00:01:17.739Z,85.11
2019-03-30T00:02:46.472Z,85.24
2019-03-30T00:04:15.262Z,85.27
2019-03-30T00:05:43.985Z,85.43
2019-03-30T00:07:13.496Z,85.42
2019-03-30T00:08:42.436Z,85.49
2019-03-30T00:10:11.177Z,85.51
2019-03-30T00:11:40.855Z,85.48
2019-03-30T00:13:09.576Z,85.5
2019-03-30T00:14:38.299Z,85.67
2019-03-30T00:16:07.899Z,85.79
2019-03-30T00:17:36.623Z,85.81
2019-03-30T00:19:05.580Z,85.89
2019-03-30T00:20:35.197Z,85.88
2019-03-30T00:22:04.854Z,85.86
2019-03-30T00:23:33.828Z,85.84
2019-03-30T00:25:02.810Z,85.71
2019-03-30T00:26:31.893Z,85.87
2019-03-30T00:28:00.618Z,85.89
2019-03-30T00:29:29.413Z,85.88
2019-03-30T00:30:58.381Z,85.96
2019-03-30T00:32:27.177Z,86.02
2019-03-30T00:33:56.455Z,85.99
2019-03-30T00:35:25.174Z,85.87
2019-03-30T00:36:54.619Z,85.74
2019-03-30T00:38:23.459Z,85.66
2019-03-30T00:39:52.218Z,85.71
2019-03-30T00:41:20.940Z,85.77
2019-03-30T00:42:50.141Z,85.79
2019-03-30T00:44:19.571Z,85.76
2019-03-30T00:45:48.297Z,85.64
2019-03-30T00:47:17.025Z,85.53
2019-03-30T00:48:46.941Z,85.75
2019-03-30T00:50:15.653Z,85.81
2019-03-30T00:51:44.377Z,85.9
2019-03-30T00:53:13.268Z,85.99
2019-03-30T00:54:41.956Z,85.92
2019-03-30T00:56:10.781Z,85.93
2019-03-30T00:57:39.662Z,86
2019-03-30T00:59:08.382Z,85.91
2019-03-30T01:00:38.055Z,85.86
2019-03-30T01:02:07.330Z,85.99
2019-03-30T01:03:36.944Z,86.3
2019-03-30T01:05:05.659Z,86.36
2019-03-30T01:06:34.625Z,86.26
2019-03-30T01:08:04.221Z,86.29
2019-03-30T01:09:32.930Z,86.14
2019-03-30T01:11:01.658Z,85.95
2019-03-30T01:12:30.378Z,85.97
2019-03-30T01:13:59.103Z,86.25
2019-03-30T01:15:28.059Z,86.38
2019-03-30T01:16:57.653Z,86.48
2019-03-30T01:18:26.381Z,86.39
2019-03-30T01:20:07.989Z,86.28
2019-03-30T01:21:36.798Z,86.16
2019-03-30T01:23:06.464Z,86.06
2019-03-30T01:24:36.291Z,86.08
2019-03-30T01:26:05.017Z,86.2
2019-03-30T01:27:33.739Z,86.38
2019-03-30T01:29:02.460Z,86.35
2019-03-30T01:30:32.082Z,86.49
2019-03-30T01:32:02.689Z,86.57
2019-03-30T01:33:32.290Z,86.54
2019-03-30T01:35:01.213Z,86.52
2019-03-30T01:36:30.690Z,86.57
2019-03-30T01:38:03.018Z,86.58
2019-03-30T01:39:31.729Z,86.72
2019-03-30T01:41:00.717Z,86.54
2019-03-30T01:42:29.496Z,86.35
2019-03-30T01:43:58.218Z,86.45
2019-03-30T01:45:27.971Z,86.36
2019-03-30T01:46:56.694Z,86.49
2019-03-30T01:48:26.137Z,86.57
2019-03-30T01:49:54.857Z,86.4
2019-03-30T01:51:23.901Z,86.34
2019-03-30T01:52:53.023Z,86.33
2019-03-30T01:54:21.819Z,86.41
2019-03-30T01:55:50.533Z,86.56
2019-03-30T01:57:19.464Z,86.59
2019-03-30T01:58:49.249Z,86.57
2019-03-30T02:00:17.976Z,86.63
2019-03-30T02:01:46.693Z,86.78
2019-03-30T02:03:15.489Z,86.91
2019-03-30T02:04:45.093Z,86.8
2019-03-30T02:06:13.805Z,86.75
2019-03-30T02:07:42.864Z,86.8
2019-03-30T02:09:12.454Z,86.78
2019-03-30T02:10:41.253Z,86.6
2019-03-30T02:12:09.973Z,86.49
2019-03-30T02:13:38.940Z,86.54
2019-03-30T02:15:07.654Z,86.61
2019-03-30T02:16:36.387Z,86.66
2019-03-30T02:18:05.098Z,86.87
2019-03-30T02:19:34.700Z,86.8
2019-03-30T02:21:04.131Z,86.91
2019-03-30T02:22:33.420Z,87.12
2019-03-30T02:24:02.133Z,87.16
2019-03-30T02:25:31.192Z,87.23
2019-03-30T02:27:00.138Z,87.3
2019-03-30T02:28:28.858Z,87.31
2019-03-30T02:29:57.572Z,87.23
2019-03-30T02:31:27.203Z,87.15
2019-03-30T02:32:55.997Z,86.99
2019-03-30T02:34:24.777Z,86.78
2019-03-30T02:35:53.576Z,86.68
2019-03-30T02:37:22.374Z,86.69
2019-03-30T02:38:51.094Z,86.54
2019-03-30T02:40:19.822Z,86.51
2019-03-30T02:41:48.551Z,86.4
2019-03-30T02:43:17.430Z,86.29
2019-03-30T02:44:46.140Z,86.21
2019-03-30T02:46:14.861Z,86.13
2019-03-30T02:47:43.657Z,86.22
2019-03-30T02:49:14.212Z,86.3
2019-03-30T02:50:55.189Z,86.29
2019-03-30T02:52:24.070Z,86.22
2019-03-30T02:53:52.859Z,86.24
2019-03-30T02:55:21.579Z,86.33
2019-03-30T02:56:50.319Z,86.43
2019-03-30T02:58:19.095Z,86.46
2019-03-30T02:59:47.819Z,86.53
2019-03-30T03:01:16.548Z,86.5
2019-03-30T03:02:45.343Z,86.53
2019-03-30T03:04:14.233Z,86.51
2019-03-30T03:05:43.338Z,86.46
2019-03-30T03:07:12.934Z,86.39
2019-03-30T03:08:41.754Z,86.32
2019-03-30T03:10:11.202Z,86.33
2019-03-30T03:11:40.400Z,86.37
2019-03-30T03:13:09.312Z,86.28
2019-03-30T03:14:38.070Z,86.12
2019-03-30T03:16:06.881Z,86.02
2019-03-30T03:17:35.895Z,86.1
2019-03-30T03:19:05.491Z,86.15
2019-03-30T03:20:34.207Z,86.17
2019-03-30T03:22:03.012Z,86.16
2019-03-30T03:23:31.747Z,86.12
2019-03-30T03:25:01.510Z,86.24
2019-03-30T03:26:30.370Z,86.35
2019-03-30T03:27:59.176Z,86.24
2019-03-30T03:29:27.995Z,86.18
2019-03-30T03:30:56.781Z,86.07
2019-03-30T03:32:26.486Z,86.05
2019-03-30T03:33:55.370Z,86.21
2019-03-30T03:35:24.131Z,86.35
2019-03-30T03:36:52.866Z,86.39
2019-03-30T03:38:21.575Z,86.59
2019-03-30T03:39:51.094Z,86.73
2019-03-30T03:41:19.855Z,86.8
2019-03-30T03:42:48.628Z,86.83
2019-03-30T03:44:17.659Z,86.82
2019-03-30T03:45:47.347Z,86.83
2019-03-30T03:47:16.210Z,86.79
2019-03-30T03:48:45.822Z,86.79
2019-03-30T03:50:14.691Z,86.71
2019-03-30T03:51:43.416Z,86.71
2019-03-30T03:53:12.134Z,86.76
2019-03-30T03:54:41.017Z,86.86
2019-03-30T03:56:09.831Z,86.92
2019-03-30T03:57:38.707Z,86.85
2019-03-30T03:59:08.334Z,86.76
2019-03-30T04:00:37.517Z,86.79
2019-03-30T04:02:06.311Z,86.74
2019-03-30T04:03:35.907Z,86.76
2019-03-30T04:05:04.719Z,86.82
2019-03-30T04:06:33.578Z,86.93
2019-03-30T04:08:02.373Z,86.94
2019-03-30T04:09:32.075Z,86.9
2019-03-30T04:11:00.868Z,86.93
2019-03-30T04:12:29.929Z,86.93
2019-03-30T04:13:58.699Z,86.87
2019-03-30T04:15:27.426Z,86.76
2019-03-30T04:16:56.145Z,86.72
2019-03-30T04:18:25.587Z,86.77
2019-03-30T04:19:54.871Z,86.86
2019-03-30T04:21:23.898Z,86.92
2019-03-30T04:22:52.805Z,86.95
2019-03-30T04:24:21.588Z,86.95
2019-03-30T04:25:51.261Z,86.95
2019-03-30T04:27:20.950Z,87
2019-03-30T04:28:51.831Z,86.91
2019-03-30T04:30:21.458Z,86.91
2019-03-30T04:31:50.385Z,86.93
2019-03-30T04:33:19.592Z,86.98
2019-03-30T04:34:48.299Z,86.96
2019-03-30T04:36:17.029Z,86.98
2019-03-30T04:37:46.378Z,87.04
2019-03-30T04:39:15.983Z,87.1
2019-03-30T04:40:44.707Z,87.18
2019-03-30T04:42:13.416Z,87.2
2019-03-30T04:43:42.404Z,87.28
2019-03-30T04:45:11.194Z,87.29
2019-03-30T04:46:39.985Z,87.28
2019-03-30T04:48:08.809Z,87.33
2019-03-30T04:49:38.229Z,87.43
2019-03-30T04:51:06.933Z,87.45
2019-03-30T04:52:35.738Z,87.49
2019-03-30T04:54:04.461Z,87.54
2019-03-30T04:55:33.579Z,87.53
2019-03-30T04:57:02.373Z,87.42
2019-03-30T04:58:31.110Z,87.46
2019-03-30T04:59:59.813Z,87.5
2019-03-30T05:01:30.697Z,87.59
2019-03-30T05:02:59.418Z,87.61
2019-03-30T05:04:28.141Z,87.63
2019-03-30T05:05:56.870Z,87.66
2019-03-30T05:07:25.579Z,87.68
2019-03-30T05:08:54.309Z,87.7
2019-03-30T05:10:23.016Z,87.69
2019-03-30T05:11:52.632Z,87.64
2019-03-30T05:13:21.337Z,87.58
2019-03-30T05:14:50.936Z,87.58
2019-03-30T05:16:19.669Z,87.64
2019-03-30T05:17:52.851Z,87.67
2019-03-30T05:19:21.578Z,87.79
2019-03-30T05:20:50.293Z,87.72
2019-03-30T05:22:21.730Z,87.69
2019-03-30T05:23:50.540Z,87.7
2019-03-30T05:25:19.267Z,87.67
2019-03-30T05:26:48.074Z,87.66
2019-03-30T05:28:17.910Z,87.69
2019-03-30T05:29:46.626Z,87.77
2019-03-30T05:31:15.411Z,87.78
2019-03-30T05:32:46.780Z,87.79
2019-03-30T05:34:15.574Z,87.87
2019-03-30T05:35:44.297Z,87.89
2019-03-30T05:37:13.025Z,87.88
2019-03-30T05:38:41.934Z,87.96
2019-03-30T05:40:11.582Z,87.95
2019-03-30T05:41:40.298Z,87.98
2019-03-30T05:43:09.012Z,87.87
2019-03-30T05:44:37.738Z,87.85
2019-03-30T05:46:06.469Z,87.94
2019-03-30T05:47:35.179Z,87.92
2019-03-30T05:49:04.781Z,87.97
2019-03-30T05:50:33.495Z,87.98
2019-03-30T05:52:03.087Z,87.94
2019-03-30T05:53:31.908Z,87.97
2019-03-30T05:55:00.638Z,87.96
2019-03-30T05:56:29.429Z,87.77
2019-03-30T05:57:58.218Z,87.71
2019-03-30T05:59:26.931Z,87.79
2019-03-30T06:00:55.662Z,87.85
2019-03-30T06:02:24.535Z,87.77
2019-03-30T06:03:53.284Z,87.75
2019-03-30T06:05:22.054Z,87.65
2019-03-30T06:06:50.779Z,87.69
2019-03-30T06:08:19.509Z,87.64
2019-03-30T06:09:48.212Z,87.57
2019-03-30T06:11:17.014Z,87.41
2019-03-30T06:12:45.971Z,87.42
2019-03-30T06:14:14.772Z,87.31
2019-03-30T06:15:43.580Z,87.51
2019-03-30T06:17:12.696Z,87.73
2019-03-30T06:18:41.429Z,87.89
2019-03-30T06:20:10.235Z,87.65
2019-03-30T06:21:40.780Z,87.74
2019-03-30T06:23:10.525Z,87.64
2019-03-30T06:24:39.821Z,87.6
2019-03-30T06:26:09.511Z,87.68
2019-03-30T06:27:38.238Z,87.62
2019-03-30T06:29:07.908Z,87.43
2019-03-30T06:30:36.690Z,87.32
2019-03-30T06:32:06.291Z,87.2
2019-03-30T06:33:35.891Z,87.08
2019-03-30T06:35:05.579Z,86.89
2019-03-30T06:36:35.186Z,86.72
2019-03-30T06:38:03.909Z,86.52
2019-03-30T06:39:32.616Z,86.66
2019-03-30T06:41:02.307Z,86.61
2019-03-30T06:42:31.035Z,86.59
2019-03-30T06:44:00.700Z,86.51
2019-03-30T06:45:29.410Z,86.79
2019-03-30T06:46:58.145Z,86.91
2019-03-30T06:48:26.852Z,86.89
2019-03-30T06:49:56.219Z,86.91
2019-03-30T06:51:24.932Z,87.19
2019-03-30T06:53:03.105Z,87.15
2019-03-30T06:54:31.825Z,87.03
2019-03-30T06:56:01.513Z,87.21
2019-03-30T06:57:30.227Z,87.05
2019-03-30T06:58:59.045Z,86.9
2019-03-30T07:00:28.137Z,86.63
2019-03-30T07:01:56.856Z,86.42
2019-03-30T07:03:25.581Z,86.27
2019-03-30T07:04:55.169Z,86.09
2019-03-30T07:06:23.903Z,86.04
2019-03-30T07:07:53.099Z,85.88
2019-03-30T07:09:22.728Z,85.84
2019-03-30T07:10:51.491Z,85.71
2019-03-30T07:12:20.304Z,85.59
2019-03-30T07:13:49.026Z,85.68
2019-03-30T07:15:17.733Z,85.45
2019-03-30T07:16:46.695Z,85.59
2019-03-30T07:18:15.726Z,85.32
2019-03-30T07:19:44.560Z,85.28
2019-03-30T07:21:14.224Z,85.33
2019-03-30T07:22:43.020Z,85.16
2019-03-30T07:24:12.259Z,85.25
2019-03-30T07:25:41.040Z,85.05
2019-03-30T07:27:09.896Z,84.94
2019-03-30T07:28:38.700Z,85
2019-03-30T07:30:08.248Z,84.89
2019-03-30T07:31:37.013Z,84.77
2019-03-30T07:33:06.377Z,84.85
2019-03-30T07:34:35.174Z,84.92
2019-03-30T07:36:04.475Z,84.85
2019-03-30T07:37:33.258Z,84.63
2019-03-30T07:39:01.974Z,84.58
2019-03-30T07:40:34.215Z,84.48
2019-03-30T07:42:03.700Z,84.46
2019-03-30T07:43:33.357Z,84.27
2019-03-30T07:45:03.819Z,84.26
2019-03-30T07:46:32.628Z,84.31
2019-03-30T07:48:01.335Z,84.27
2019-03-30T07:49:30.054Z,84.29
2019-03-30T07:50:58.866Z,83.98
2019-03-30T07:52:27.570Z,84.12
2019-03-30T07:53:56.289Z,84.08
2019-03-30T07:55:26.770Z,83.66
2019-03-30T07:57:17.684Z,83.64
2019-03-30T07:58:47.341Z,83.56
2019-03-30T08:00:16.050Z,83.27
2019-03-30T08:01:44.939Z,83.41
2019-03-30T08:03:13.658Z,83.27
2019-03-30T08:04:42.491Z,83.24
2019-03-30T08:06:11.387Z,83.1
2019-03-30T08:07:40.289Z,83.05
2019-03-30T08:09:09.344Z,82.87
2019-03-30T08:10:38.136Z,82.94
2019-03-30T08:12:07.894Z,82.83
2019-03-30T08:13:38.571Z,82.71
2019-03-30T08:15:08.240Z,82.58
2019-03-30T08:16:37.017Z,82.72
2019-03-30T08:18:05.754Z,82.45
2019-03-30T08:19:35.414Z,82.36
2019-03-30T08:21:04.159Z,82.23
2019-03-30T08:22:33.427Z,82.12
2019-03-30T08:24:02.241Z,82.3
2019-03-30T08:25:31.424Z,82.23
2019-03-30T08:27:00.152Z,82.15
2019-03-30T08:28:29.338Z,82.02
2019-03-30T08:29:58.060Z,82.03
2019-03-30T08:31:28.130Z,81.59
2019-03-30T08:32:56.878Z,81.61
2019-03-30T08:34:26.135Z,81.55
2019-03-30T08:35:55.830Z,81.36
2019-03-30T08:37:24.780Z,81.3
2019-03-30T08:38:53.803Z,81.07
2019-03-30T08:40:22.541Z,80.96
2019-03-30T08:41:51.987Z,80.94
2019-03-30T08:43:20.694Z,80.79
2019-03-30T08:44:49.822Z,80.82
2019-03-30T08:46:18.613Z,81.29
2019-03-30T08:47:47.333Z,80.92
2019-03-30T08:49:16.048Z,80.71
2019-03-30T08:50:44.779Z,80.52
2019-03-30T08:52:13.503Z,80.44
2019-03-30T08:53:55.270Z,80.34
2019-03-30T08:55:24.060Z,80.11
2019-03-30T08:56:52.861Z,80.08
2019-03-30T08:58:22.454Z,79.87
2019-03-30T08:59:51.178Z,79.75
2019-03-30T09:01:20.489Z,79.55
2019-03-30T09:02:49.253Z,79.5
2019-03-30T09:04:17.977Z,79.16
2019-03-30T09:05:48.133Z,79.21
2019-03-30T09:07:17.736Z,78.77
2019-03-30T09:08:46.456Z,78.74
2019-03-30T09:10:15.302Z,78.66
2019-03-30T09:11:44.061Z,78.24
2019-03-30T09:13:13.668Z,77.78
2019-03-30T09:14:43.253Z,77.67
2019-03-30T09:16:11.979Z,77.5
2019-03-30T09:17:42.454Z,77.68
2019-03-30T09:19:12.054Z,77.39
2019-03-30T09:20:41.338Z,76.89
2019-03-30T09:22:10.054Z,75.91
2019-03-30T09:23:38.771Z,75.12
2019-03-30T09:25:09.173Z,74.45
2019-03-30T09:26:37.888Z,74.46
2019-03-30T09:28:07.336Z,74.48
2019-03-30T09:29:36.897Z,74.6
2019-03-30T09:31:05.739Z,74.61
2019-03-30T09:32:34.549Z,74.46
2019-03-30T09:34:03.269Z,73.78
2019-03-30T09:35:32.297Z,73.35
2019-03-30T09:37:01.984Z,72.01
2019-03-30T09:38:30.691Z,70.45
2019-03-30T09:40:00.529Z,69.34
2019-03-30T09:41:29.975Z,65.32
2019-03-30T09:42:58.691Z,62.93
2019-03-30T09:44:27.669Z,63.62
2019-03-30T09:45:56.375Z,61.66
2019-03-30T09:47:25.101Z,60.04
2019-03-30T09:48:54.698Z,60.9
2019-03-30T09:50:25.176Z,62.16
2019-03-30T09:51:54.780Z,61.49
2019-03-30T09:53:23.494Z,60.39
2019-03-30T09:54:52.211Z,60.28
2019-03-30T09:56:23.499Z,59.19
2019-03-30T09:57:52.219Z,57.61
2019-03-30T09:59:21.895Z,57.59
2019-03-30T10:00:52.479Z,58.02
2019-03-30T10:02:22.138Z,58.59
2019-03-30T10:03:50.947Z,58.93
2019-03-30T10:05:19.657Z,58.34
2019-03-30T10:06:48.381Z,57.66
2019-03-30T10:08:17.175Z,57.87
2019-03-30T10:09:47.688Z,58.86
2019-03-30T10:11:16.532Z,58.33
2019-03-30T10:12:46.132Z,58.1
2019-03-30T10:14:14.858Z,57.96
2019-03-30T10:15:44.453Z,57.48
2019-03-30T10:17:13.188Z,55.17
2019-03-30T10:18:41.903Z,55.37
2019-03-30T10:20:10.626Z,56.45
2019-03-30T10:21:39.331Z,57.24
2019-03-30T10:23:08.161Z,57.23
2019-03-30T10:24:43.566Z,57.32
2019-03-30T10:26:12.955Z,57.6
2019-03-30T10:27:41.749Z,57.34
2019-03-30T10:29:11.525Z,57.5
2019-03-30T10:30:41.018Z,56.66
2019-03-30T10:32:09.737Z,54.31
2019-03-30T10:33:38.534Z,54.21
2019-03-30T10:35:07.337Z,52.95
2019-03-30T10:36:36.058Z,53.65
2019-03-30T10:38:04.773Z,54.07
2019-03-30T10:39:33.501Z,53.83
2019-03-30T10:41:03.110Z,54.25
2019-03-30T10:42:32.781Z,54.45
2019-03-30T10:44:01.580Z,54.53
2019-03-30T10:45:30.406Z,54.63
2019-03-30T10:46:59.169Z,54.53
2019-03-30T10:48:27.900Z,53.01
2019-03-30T10:49:57.097Z,52.58
2019-03-30T10:51:26.793Z,52.28
2019-03-30T10:52:57.334Z,52.78
2019-03-30T10:54:26.074Z,51.86
2019-03-30T10:55:54.858Z,52.26
2019-03-30T10:57:23.584Z,52.45
2019-03-30T10:58:52.384Z,53.04
2019-03-30T11:00:21.111Z,53.35
2019-03-30T11:01:52.411Z,50.87
2019-03-30T11:03:21.988Z,51.73
2019-03-30T11:04:51.576Z,52
2019-03-30T11:06:20.308Z,50.7
2019-03-30T11:07:49.429Z,50.47
2019-03-30T11:09:19.331Z,49.03
2019-03-30T11:10:48.145Z,48.93
2019-03-30T11:12:17.342Z,48.79
2019-03-30T11:13:46.058Z,44.74
2019-03-30T11:15:14.783Z,44.92
2019-03-30T11:16:45.252Z,43.82
2019-03-30T11:18:13.977Z,44.4
2019-03-30T11:19:42.706Z,44.88
2019-03-30T11:21:12.701Z,44.51
2019-03-30T11:22:41.417Z,45.57
2019-03-30T11:24:11.898Z,43.96
2019-03-30T11:25:41.495Z,42.59
2019-03-30T11:27:10.218Z,43.3
2019-03-30T11:28:38.936Z,41.79
2019-03-30T11:30:07.659Z,41.85
2019-03-30T11:31:36.383Z,41.29
2019-03-30T11:33:06.320Z,42.77
2019-03-30T11:34:35.976Z,44.14
2019-03-30T11:36:04.978Z,44.39
2019-03-30T11:37:33.745Z,43.95
2019-03-30T11:39:02.459Z,44.62
2019-03-30T11:40:31.180Z,42.44
2019-03-30T11:42:00.778Z,43.34
2019-03-30T11:43:29.500Z,42.44
2019-03-30T11:44:58.979Z,42.41
2019-03-30T11:46:27.737Z,41.5
2019-03-30T11:47:57.349Z,40.69
2019-03-30T11:49:26.306Z,41.01
2019-03-30T11:50:55.170Z,39.76
2019-03-30T11:52:24.064Z,40.82
2019-03-30T11:53:53.424Z,40.04
2019-03-30T11:55:27.119Z,39.73
2019-03-30T11:56:56.056Z,40.14
2019-03-30T11:58:25.507Z,40.27
2019-03-30T11:59:54.212Z,40.77
2019-03-30T12:01:27.041Z,39.64
2019-03-30T12:02:55.819Z,40.37
2019-03-30T12:04:25.421Z,36.97
2019-03-30T12:05:54.138Z,37.43
2019-03-30T12:07:22.944Z,39.28
2019-03-30T12:08:51.695Z,40.07
2019-03-30T12:10:20.458Z,40.09
2019-03-30T12:11:49.265Z,40.47
2019-03-30T12:13:17.983Z,40.63
2019-03-30T12:14:46.708Z,40.64
2019-03-30T12:16:16.378Z,40.94
2019-03-30T12:17:47.256Z,38.76
2019-03-30T12:19:15.982Z,39.55
2019-03-30T12:20:44.702Z,38.96
2019-03-30T12:22:13.580Z,38.52
2019-03-30T12:23:43.083Z,39.35
2019-03-30T12:25:11.830Z,38.69
2019-03-30T12:26:40.621Z,39.15
2019-03-30T12:28:09.357Z,39.52
2019-03-30T12:29:38.245Z,40.1
2019-03-30T12:31:08.870Z,39.59
2019-03-30T12:32:37.667Z,38.47
2019-03-30T12:34:06.945Z,38.82
2019-03-30T12:35:35.666Z,38.11
2019-03-30T12:37:04.381Z,40.27
2019-03-30T12:38:33.563Z,38.43
2019-03-30T12:40:03.585Z,37.01
2019-03-30T12:41:32.297Z,35.9
2019-03-30T12:43:01.095Z,36.81
2019-03-30T12:44:29.827Z,35.85
2019-03-30T12:45:58.537Z,35.7
2019-03-30T12:47:28.141Z,36.31
2019-03-30T12:48:56.881Z,36.45
2019-03-30T12:50:25.656Z,35.49
2019-03-30T12:51:55.340Z,36.17
2019-03-30T12:53:24.221Z,35.37
2019-03-30T12:54:53.917Z,34.48
2019-03-30T12:56:22.699Z,35.69
2019-03-30T12:57:51.904Z,35.78
2019-03-30T12:59:21.098Z,36.45
2019-03-30T13:00:50.535Z,36.28
2019-03-30T13:02:19.264Z,35.99
2019-03-30T13:03:48.143Z,35.38
2019-03-30T13:05:16.861Z,36.02
2019-03-30T13:06:47.583Z,36.64
2019-03-30T13:08:18.389Z,35.27
2019-03-30T13:09:48.064Z,35.1
2019-03-30T13:11:18.545Z,35.44
2019-03-30T13:12:47.817Z,36.49
2019-03-30T13:14:16.531Z,34.89
2019-03-30T13:15:46.229Z,35.05
2019-03-30T13:17:14.937Z,33.88
2019-03-30T13:18:44.211Z,34.46
2019-03-30T13:20:12.943Z,36
2019-03-30T13:21:53.543Z,35.45
2019-03-30T13:23:22.388Z,34.65
2019-03-30T13:24:51.294Z,35.35
2019-03-30T13:26:20.067Z,34.71
2019-03-30T13:27:48.780Z,34.82
2019-03-30T13:29:17.501Z,35.37
2019-03-30T13:30:46.330Z,35.28
2019-03-30T13:32:15.106Z,35.95
2019-03-30T13:33:43.912Z,35.35
2019-03-30T13:35:12.698Z,35.21
2019-03-30T13:36:41.423Z,34.84
2019-03-30T13:38:10.581Z,35.24
2019-03-30T13:39:40.370Z,35.64
2019-03-30T13:41:09.173Z,34.84
2019-03-30T13:42:38.379Z,34.48
2019-03-30T13:44:07.836Z,35.06
2019-03-30T13:45:37.505Z,35.81
2019-03-30T13:47:07.105Z,36.12
2019-03-30T13:48:35.914Z,35.34
2019-03-30T13:50:04.696Z,35.09
2019-03-30T13:51:33.519Z,35.73
2019-03-30T13:53:02.316Z,34.76
2019-03-30T13:54:31.099Z,34.67
2019-03-30T13:55:59.896Z,34.49
2019-03-30T13:57:28.801Z,34.87
2019-03-30T13:58:57.648Z,34.75
2019-03-30T14:00:27.339Z,34.11
2019-03-30T14:01:56.057Z,35.07
2019-03-30T14:03:24.783Z,34.57
2019-03-30T14:04:53.573Z,35.42
2019-03-30T14:06:22.382Z,35.22
2019-03-30T14:07:51.183Z,33.32
2019-03-30T14:09:22.299Z,33.32
2019-03-30T14:10:51.033Z,34.36
2019-03-30T14:12:19.967Z,33.87
2019-03-30T14:13:48.775Z,34.31
2019-03-30T14:15:17.590Z,34.97
2019-03-30T14:16:47.167Z,34.59
2019-03-30T14:18:15.991Z,33.81
2019-03-30T14:19:44.785Z,33.94
2019-03-30T14:21:14.310Z,34.97
2019-03-30T14:22:43.147Z,34.88
2019-03-30T14:24:11.918Z,35.11
2019-03-30T14:25:40.772Z,35.86
2019-03-30T14:27:10.375Z,34.55
2019-03-30T14:28:39.145Z,34.23
2019-03-30T14:30:07.894Z,33.41
2019-03-30T14:31:36.625Z,33.87
2019-03-30T14:33:05.356Z,34
2019-03-30T14:34:34.225Z,33.73
2019-03-30T14:36:03.799Z,34.42
2019-03-30T14:37:32.668Z,33.74
2019-03-30T14:39:01.430Z,34.86
2019-03-30T14:40:30.214Z,34.4
2019-03-30T14:41:58.939Z,34.22
2019-03-30T14:43:28.541Z,34.61
2019-03-30T14:44:57.252Z,35.32
2019-03-30T14:46:25.989Z,35
2019-03-30T14:47:58.435Z,34.8
2019-03-30T14:49:27.254Z,34.44
2019-03-30T14:50:56.006Z,34.61
2019-03-30T14:52:24.781Z,35.43
2019-03-30T14:53:53.516Z,35.83
2019-03-30T14:55:22.477Z,34.78
2019-03-30T14:56:53.822Z,35.21
2019-03-30T14:58:22.734Z,35.84
2019-03-30T14:59:51.495Z,36.03
2019-03-30T15:01:20.385Z,36.13
2019-03-30T15:02:49.127Z,35
2019-03-30T15:04:17.986Z,35.18
2019-03-30T15:05:47.595Z,35.54
2019-03-30T15:07:16.382Z,35.02
2019-03-30T15:08:45.977Z,35.45
2019-03-30T15:10:14.784Z,35.39
2019-03-30T15:11:43.500Z,35.5
2019-03-30T15:13:12.219Z,35.6
2019-03-30T15:14:41.028Z,35.93
2019-03-30T15:16:10.545Z,35.58
2019-03-30T15:17:41.563Z,35.47
2019-03-30T15:19:10.556Z,34.65
2019-03-30T15:20:41.256Z,34.91
2019-03-30T15:22:10.388Z,35.15
2019-03-30T15:23:39.980Z,35.81
2019-03-30T15:25:09.419Z,35.78
2019-03-30T15:26:38.144Z,35.19
2019-03-30T15:28:07.750Z,35.57
2019-03-30T15:29:37.191Z,35.58
2019-03-30T15:31:05.998Z,35.44
2019-03-30T15:32:34.782Z,36
2019-03-30T15:34:03.517Z,35.85
2019-03-30T15:35:32.300Z,35.89
2019-03-30T15:37:01.024Z,35.87
2019-03-30T15:38:30.646Z,35.67
2019-03-30T15:39:59.432Z,36.39
2019-03-30T15:41:28.257Z,36.46
2019-03-30T15:42:57.024Z,37.07
2019-03-30T15:44:25.741Z,37.56
2019-03-30T15:45:54.458Z,37.07
2019-03-30T15:47:23.495Z,36.87
2019-03-30T15:48:53.024Z,37.03
2019-03-30T15:50:21.988Z,37.44
2019-03-30T15:51:50.715Z,37.37
2019-03-30T15:53:19.511Z,38.02
2019-03-30T15:54:48.310Z,36.98
2019-03-30T15:56:17.023Z,36.3
2019-03-30T15:57:45.778Z,36.5
2019-03-30T15:59:14.653Z,37.23
2019-03-30T16:00:46.290Z,36.7
2019-03-30T16:02:15.907Z,37.51
2019-03-30T16:03:44.645Z,37.46
2019-03-30T16:05:16.146Z,37.64
2019-03-30T16:06:46.131Z,36.97
2019-03-30T16:08:14.863Z,36.8
2019-03-30T16:09:44.469Z,37.61
2019-03-30T16:11:14.065Z,37.03
2019-03-30T16:12:43.739Z,37.39
2019-03-30T16:14:12.461Z,37.45
2019-03-30T16:15:44.900Z,38.29
2019-03-30T16:17:15.277Z,37.73
2019-03-30T16:18:44.054Z,37.83
2019-03-30T16:20:16.554Z,38.24
2019-03-30T16:21:45.346Z,38.59
2019-03-30T16:23:14.053Z,38.39
2019-03-30T16:24:43.709Z,38.19
2019-03-30T16:26:13.433Z,38.32
2019-03-30T16:27:44.460Z,38.32
2019-03-30T16:29:13.588Z,38.67
2019-03-30T16:30:42.323Z,39.62
2019-03-30T16:32:11.100Z,39.08
2019-03-30T16:33:39.824Z,39.65
2019-03-30T16:35:08.682Z,39.79
2019-03-30T16:36:38.293Z,39.9
2019-03-30T16:38:07.030Z,39.76
2019-03-30T16:39:35.733Z,40.1
2019-03-30T16:41:04.453Z,39.06
2019-03-30T16:42:33.180Z,38.89
2019-03-30T16:44:02.619Z,39.6
2019-03-30T16:45:31.418Z,39.3
2019-03-30T16:47:02.701Z,39.82
2019-03-30T16:48:31.417Z,39.99
2019-03-30T16:50:01.020Z,40.27
2019-03-30T16:51:29.829Z,40.52
2019-03-30T16:52:58.619Z,40.81
2019-03-30T16:54:27.346Z,41.37
2019-03-30T16:55:56.945Z,41.12
2019-03-30T16:57:27.496Z,40.85
2019-03-30T16:58:57.096Z,41.71
2019-03-30T17:00:26.705Z,42.04
2019-03-30T17:01:55.413Z,42.63
2019-03-30T17:03:24.136Z,42.2
2019-03-30T17:04:52.859Z,42.76
2019-03-30T17:06:22.063Z,42.81
2019-03-30T17:07:50.994Z,43.21
2019-03-30T17:09:20.616Z,43.13
2019-03-30T17:10:49.517Z,43.8
2019-03-30T17:12:18.403Z,44.01
2019-03-30T17:13:48.726Z,44.4
2019-03-30T17:15:17.819Z,44.57
2019-03-30T17:16:46.535Z,44.95
2019-03-30T17:18:15.256Z,45.4
2019-03-30T17:19:45.053Z,45.61
2019-03-30T17:21:14.055Z,46.13
2019-03-30T17:22:42.855Z,46.44
2019-03-30T17:24:11.576Z,46.64
2019-03-30T17:25:40.320Z,46.68
2019-03-30T17:27:09.179Z,47.41
2019-03-30T17:28:38.176Z,47.82
2019-03-30T17:30:07.980Z,47.86
2019-03-30T17:31:36.704Z,48.1
2019-03-30T17:33:05.421Z,48.18
2019-03-30T17:34:34.299Z,48.15
2019-03-30T17:36:03.097Z,48.4
2019-03-30T17:37:31.824Z,48.49
2019-03-30T17:39:00.656Z,48.49
2019-03-30T17:40:29.492Z,48.62
2019-03-30T17:41:58.382Z,49.02
2019-03-30T17:43:27.201Z,49.2
2019-03-30T17:44:56.873Z,49.55
2019-03-30T17:46:25.672Z,49.79
2019-03-30T17:47:54.527Z,50.05
2019-03-30T17:49:24.156Z,50.24
2019-03-30T17:50:52.952Z,50.69
2019-03-30T17:52:21.743Z,51.16
2019-03-30T17:53:50.458Z,51.44
2019-03-30T17:55:34.441Z,52.17
2019-03-30T17:57:03.180Z,53.06
2019-03-30T17:58:32.781Z,53.33
2019-03-30T18:00:01.581Z,53.74
2019-03-30T18:01:30.303Z,53.78
2019-03-30T18:02:59.895Z,53.98
2019-03-30T18:04:28.619Z,54.34
2019-03-30T18:05:58.861Z,54.67
2019-03-30T18:07:27.657Z,54.99
2019-03-30T18:08:57.253Z,55.24
2019-03-30T18:10:25.974Z,55.48
2019-03-30T18:11:54.779Z,55.98
2019-03-30T18:13:23.495Z,56.68
2019-03-30T18:14:52.236Z,56.82
2019-03-30T18:16:22.889Z,57.31
2019-03-30T18:17:51.674Z,57.65
2019-03-30T18:19:21.423Z,58.07
2019-03-30T18:20:50.133Z,57.74
2019-03-30T18:22:19.029Z,57.67
2019-03-30T18:23:52.650Z,57.65
2019-03-30T18:25:21.420Z,57.72
2019-03-30T18:26:51.102Z,58.13
2019-03-30T18:28:32.213Z,58.77
2019-03-30T18:30:01.944Z,58.71
2019-03-30T18:31:31.052Z,58.76
2019-03-30T18:32:59.820Z,58.6
2019-03-30T18:34:28.542Z,58.72
2019-03-30T18:35:57.336Z,59.29
2019-03-30T18:37:26.062Z,59.99
2019-03-30T18:39:10.408Z,60.54
2019-03-30T18:40:39.176Z,60.57
2019-03-30T18:42:08.774Z,60.82
2019-03-30T18:43:37.505Z,60.82
2019-03-30T18:45:06.218Z,60.64
2019-03-30T18:46:35.905Z,60.1
2019-03-30T18:48:05.655Z,60.14
2019-03-30T18:49:37.012Z,60.58
2019-03-30T18:51:06.388Z,61.04
2019-03-30T18:52:35.111Z,61.6
2019-03-30T18:54:04.781Z,61.7
2019-03-30T18:55:33.505Z,61.89
2019-03-30T18:57:02.217Z,62
2019-03-30T18:58:46.057Z,62.02
2019-03-30T19:00:14.779Z,62.24
2019-03-30T19:01:43.491Z,62.2
2019-03-30T19:03:13.103Z,62.67
2019-03-30T19:04:41.892Z,62.46
2019-03-30T19:06:10.702Z,62.29
2019-03-30T19:07:39.423Z,62.11
2019-03-30T19:09:08.279Z,62.44
2019-03-30T19:10:37.018Z,62.41
2019-03-30T19:12:05.896Z,62.47
2019-03-30T19:13:34.624Z,62.82
2019-03-30T19:15:03.499Z,62.83